^^
Meteo Knjazevac Station Historical Data
Daily Summary for January 20, 2022 Units:  English    Metric   Both
Daily Weekly Monthly Yearly Custom
  High: Low: Average:
Temperature: 50.7 °F 26.1 °F 37.2 °F
Dew Point: 34.2 °F 18.9 °F 25.8 °F
Humidity: 80% 49% 65%
Wind Speed: 13mph 0mph 5.1mph
Wind Gust: 20mph - -
Wind- - SSE
Pressure: 30.29 in 30.08 in -
Precipitation: 0.00 in    
Historical Graphs
 
 
Tabular Data for January 20, 2022
Time Temperature Dew Point Pressure Wind Wind Speed Wind Gust Humidity Rainfall Rate (Hourly) solar Conditions
00:00 27.9 °F 22.5 °F 30.29 in East 3 mph 6 mph 80% 0.00 in 0 W/m2
00:10 28 °F 22.7 °F 30.28 in ESE 5 mph 7 mph 80% 0.00 in 0 W/m2
00:20 28.2 °F 22.6 °F 30.27 in East 5 mph 9 mph 79% 0.00 in 0 W/m2
00:30 28.8 °F 22.8 °F 30.27 in SE 3 mph 8 mph 78% 0.00 in 0 W/m2
00:40 29.3 °F 23 °F 30.27 in SE 5 mph 8 mph 77% 0.00 in 0 W/m2
00:50 29.1 °F 22.8 °F 30.27 in SE 2 mph 8 mph 77% 0.00 in 0 W/m2
01:00 28.2 °F 22.2 °F 30.27 in ESE 2 mph 6 mph 78% 0.00 in 0 W/m2
01:10 28.2 °F 22.2 °F 30.27 in East 1 mph 6 mph 78% 0.00 in 0 W/m2
01:20 28 °F 22 °F 30.27 in NE 1 mph 6 mph 78% 0.00 in 0 W/m2
01:30 27.9 °F 21.9 °F 30.27 in ESE 5 mph 8 mph 78% 0.00 in 0 W/m2
01:40 28.4 °F 22.4 °F 30.27 in East 6 mph 9 mph 78% 0.00 in 0 W/m2
01:50 28.4 °F 22.1 °F 30.27 in East 2 mph 9 mph 77% 0.00 in 0 W/m2
02:00 28.4 °F 22.1 °F 30.27 in ESE 3 mph 7 mph 77% 0.00 in 0 W/m2
02:10 28.4 °F 22.1 °F 30.27 in ESE 1 mph 6 mph 77% 0.00 in 0 W/m2
02:20 27.8 °F 21.6 °F 30.26 in East 1 mph 2 mph 77% 0.00 in 0 W/m2
02:30 27.5 °F 21.2 °F 30.26 in Calm   8 mph 77% 0.00 in 0 W/m2
02:40 27.5 °F 21.2 °F 30.26 in ESE 3 mph 7 mph 77% 0.00 in 0 W/m2
02:50 27.5 °F 21.2 °F 30.26 in ESE 1 mph 9 mph 77% 0.00 in 0 W/m2
03:00 27.1 °F 20.9 °F 30.25 in NE 5 mph 7 mph 77% 0.00 in 0 W/m2
03:10 27.3 °F 21.1 °F 30.25 in NE 1 mph 8 mph 77% 0.00 in 0 W/m2
03:20 27.3 °F 21.1 °F 30.25 in NNE 3 mph 7 mph 77% 0.00 in 0 W/m2
03:30 27.5 °F 20.6 °F 30.24 in NNE 3 mph 6 mph 75% 0.00 in 0 W/m2
03:40 27.4 °F 20.5 °F 30.24 in NNE 2 mph 7 mph 75% 0.00 in 0 W/m2
03:50 27.5 °F 20.3 °F 30.24 in NE 3 mph 7 mph 74% 0.00 in 0 W/m2
04:00 28 °F 20.5 °F 30.24 in SE 3 mph 10 mph 73% 0.00 in 0 W/m2
04:10 28.2 °F 20.7 °F 30.24 in SSE 3 mph 7 mph 73% 0.00 in 0 W/m2
04:20 28 °F 20.5 °F 30.23 in ENE 2 mph 7 mph 73% 0.00 in 0 W/m2
04:30 27.7 °F 20.5 °F 30.23 in NNE 3 mph 8 mph 74% 0.00 in 0 W/m2
04:40 27.5 °F 20.3 °F 30.23 in NNE 3 mph 8 mph 74% 0.00 in 0 W/m2
04:50 27.9 °F 20.3 °F 30.23 in ESE 6 mph 9 mph 73% 0.00 in 0 W/m2
05:00 28 °F 20.2 °F 30.23 in East 6 mph 10 mph 72% 0.00 in 0 W/m2
05:10 28.4 °F 20.5 °F 30.23 in SE 3 mph 8 mph 72% 0.00 in 0 W/m2
05:20 28.2 °F 20.3 °F 30.23 in SSW 1 mph 5 mph 72% 0.00 in 0 W/m2
05:30 27.7 °F 19.8 °F 30.23 in NW 1 mph 5 mph 72% 0.00 in 0 W/m2
05:40 27.4 °F 19.8 °F 30.23 in SSW 2 mph 8 mph 73% 0.00 in 0 W/m2
05:50 27.5 °F 19.9 °F 30.23 in South 1 mph 8 mph 73% 0.00 in 0 W/m2
06:00 27.1 °F 19.6 °F 30.23 in WNW 1 mph 4 mph 73% 0.00 in 0 W/m2
06:10 26.6 °F 19.4 °F 30.23 in WNW 2 mph 3 mph 74% 0.00 in 0 W/m2
06:20 26.2 °F 19.4 °F 30.23 in WNW 1 mph 3 mph 75% 0.00 in 0 W/m2
06:30 26.1 °F 19.2 °F 30.23 in NW 1 mph 5 mph 75% 0.00 in 0 W/m2
06:40 26.1 °F 18.9 °F 30.23 in NW 2 mph 5 mph 74% 0.00 in 0 W/m2
06:50 26.2 °F 19.1 °F 30.23 in NNE 2 mph 6 mph 74% 0.00 in 0 W/m2
07:00 26.4 °F 19.3 °F 30.23 in NNE 2 mph 7 mph 74% 0.00 in 5 W/m2
07:10 26.8 °F 19.3 °F 30.24 in NE 3 mph 8 mph 73% 0.00 in 11 W/m2
07:20 27.5 °F 19.7 °F 30.23 in East 6 mph 8 mph 72% 0.00 in 15 W/m2
07:30 28 °F 20.2 °F 30.24 in NE 6 mph 12 mph 72% 0.00 in 31 W/m2
07:40 28.4 °F 19.9 °F 30.23 in ENE 5 mph 11 mph 70% 0.00 in 49 W/m2
07:50 28.9 °F 20.4 °F 30.23 in NE 5 mph 10 mph 70% 0.00 in 68 W/m2
08:00 29.9 °F 20.9 °F 30.24 in NE 3 mph 9 mph 69% 0.00 in 89 W/m2
08:10 30.9 °F 21.6 °F 30.24 in NE 3 mph 6 mph 68% 0.00 in 109 W/m2
08:20 31.9 °F 22.5 °F 30.23 in East 6 mph 13 mph 68% 0.00 in 130 W/m2
08:30 32.9 °F 22.4 °F 30.23 in ENE 6 mph 8 mph 65% 0.00 in 151 W/m2
08:40 33.8 °F 23.3 °F 30.23 in ENE 6 mph 8 mph 65% 0.00 in 172 W/m2
08:50 34.5 °F 24 °F 30.23 in NE 3 mph 7 mph 65% 0.00 in 192 W/m2
09:00 35.4 °F 24.4 °F 30.23 in ENE 1 mph 7 mph 64% 0.00 in 212 W/m2
09:10 36.5 °F 25.1 °F 30.23 in NNE 3 mph 7 mph 63% 0.00 in 231 W/m2
09:20 37.4 °F 25.6 °F 30.23 in East 5 mph 9 mph 62% 0.00 in 249 W/m2
09:30 38.4 °F 25.7 °F 30.23 in East 5 mph 9 mph 60% 0.00 in 266 W/m2
09:40 39.4 °F 26.2 °F 30.23 in ESE 6 mph 9 mph 59% 0.00 in 283 W/m2
09:50 40.7 °F 27.5 °F 30.23 in South 2 mph 6 mph 59% 0.00 in 298 W/m2
10:00 42 °F 28.2 °F 30.23 in SW 3 mph 12 mph 58% 0.00 in 313 W/m2
10:10 42.6 °F 27.6 °F 30.23 in SW 5 mph 15 mph 55% 0.00 in 326 W/m2
10:20 43.2 °F 28.1 °F 30.23 in SW 9 mph 14 mph 55% 0.00 in 338 W/m2
10:30 43.5 °F 28 °F 30.22 in SW 13 mph 18 mph 54% 0.00 in 348 W/m2
10:50 44.1 °F 28.5 °F 30.22 in SW 10 mph 19 mph 54% 0.00 in 365 W/m2
11:00 44.6 °F 29 °F 30.22 in SW 10 mph 20 mph 54% 0.00 in 372 W/m2
11:10 45.2 °F 29.5 °F 30.21 in SW 10 mph 20 mph 54% 0.00 in 377 W/m2
11:20 45.5 °F 29.3 °F 30.20 in SW 8 mph 20 mph 53% 0.00 in 380 W/m2
11:30 46 °F 29.8 °F 30.20 in SW 8 mph 17 mph 53% 0.00 in 382 W/m2
11:40 46.5 °F 30.2 °F 30.20 in SW 8 mph 15 mph 53% 0.00 in 383 W/m2
11:50 47 °F 30.7 °F 30.19 in SW 8 mph 13 mph 53% 0.00 in 382 W/m2
12:00 47.5 °F 31.2 °F 30.18 in SW 7 mph 14 mph 53% 0.00 in 380 W/m2
12:10 47.7 °F 29.9 °F 30.18 in SW 10 mph 15 mph 50% 0.00 in 376 W/m2
12:20 48.4 °F 30.6 °F 30.17 in SW 8 mph 16 mph 50% 0.00 in 371 W/m2
12:30 48.4 °F 30.6 °F 30.17 in SW 9 mph 14 mph 50% 0.00 in 364 W/m2
12:40 48.6 °F 30.2 °F 30.17 in SW 10 mph 14 mph 49% 0.00 in 356 W/m2
12:50 48.7 °F 30.4 °F 30.16 in SW 8 mph 14 mph 49% 0.00 in 346 W/m2
13:00 49.3 °F 30.9 °F 30.16 in SW 8 mph 13 mph 49% 0.00 in 336 W/m2
13:10 49.5 °F 31.1 °F 30.15 in SW 6 mph 12 mph 49% 0.00 in 324 W/m2
13:20 49.8 °F 31.4 °F 30.14 in SW 6 mph 12 mph 49% 0.00 in 310 W/m2
13:30 50 °F 31.6 °F 30.14 in SW 7 mph 12 mph 49% 0.00 in 296 W/m2
13:40 50.4 °F 32 °F 30.14 in SW 7 mph 12 mph 49% 0.00 in 280 W/m2
13:50 50.5 °F 32.1 °F 30.14 in SW 6 mph 13 mph 49% 0.00 in 264 W/m2
14:00 50.7 °F 32.2 °F 30.13 in SW 7 mph 12 mph 49% 0.00 in 246 W/m2
14:10 50.5 °F 32.1 °F 30.13 in SW 7 mph 12 mph 49% 0.00 in 228 W/m2
14:20 50.5 °F 32.6 °F 30.12 in SW 8 mph 14 mph 50% 0.00 in 208 W/m2
14:30 50.7 °F 32.7 °F 30.12 in SW 6 mph 13 mph 50% 0.00 in 163 W/m2
14:40 49.8 °F 31.9 °F 30.12 in SW 10 mph 18 mph 50% 0.00 in 113 W/m2
14:50 49.3 °F 32.4 °F 30.12 in SW 10 mph 16 mph 52% 0.00 in 74 W/m2
15:00 48.9 °F 32.5 °F 30.11 in SW 9 mph 15 mph 53% 0.00 in 62 W/m2
15:10 48.6 °F 32.7 °F 30.11 in SW 7 mph 15 mph 54% 0.00 in 37 W/m2
15:20 48.2 °F 32.3 °F 30.11 in WSW 5 mph 13 mph 54% 0.00 in 23 W/m2
15:30 48 °F 32.6 °F 30.10 in SW 7 mph 10 mph 55% 0.00 in 24 W/m2
15:40 47.8 °F 33.3 °F 30.10 in WSW 7 mph 12 mph 57% 0.00 in 24 W/m2
15:50 47.7 °F 33.2 °F 30.09 in SW 6 mph 10 mph 57% 0.00 in 16 W/m2
16:00 47.5 °F 33.4 °F 30.09 in SW 5 mph 9 mph 58% 0.00 in 13 W/m2
16:10 47.4 °F 33.3 °F 30.08 in SW 6 mph 12 mph 58% 0.00 in 11 W/m2
16:20 47.3 °F 33.3 °F 30.08 in WSW 8 mph 14 mph 58% 0.00 in 6 W/m2
16:30 47.2 °F 33.2 °F 30.08 in SW 8 mph 14 mph 58% 0.00 in 0 W/m2
16:40 47.1 °F 33.1 °F 30.09 in SW 8 mph 14 mph 58% 0.00 in 0 W/m2
16:50 46.8 °F 33.2 °F 30.09 in SW 7 mph 13 mph 59% 0.00 in 0 W/m2
17:00 46.8 °F 33.2 °F 30.08 in SW 8 mph 15 mph 59% 0.00 in 0 W/m2
17:10 46.8 °F 33.6 °F 30.08 in SW 9 mph 17 mph 60% 0.00 in 0 W/m2
17:20 46.8 °F 33.6 °F 30.08 in SW 8 mph 14 mph 60% 0.00 in 0 W/m2
17:30 46.6 °F 34.2 °F 30.08 in SW 8 mph 14 mph 62% 0.00 in 0 W/m2
17:40 46.4 °F 34.1 °F 30.08 in SW 7 mph 13 mph 62% 0.00 in 0 W/m2
Knjazevac, Serbia
Compliments of Weather Underground - 2 mb